Flight Track Log - Related Links

Times and Time Zones

All times are in EDT time to prevent confusion due to time zone crossing. See the SWA862 flight status page for this flight to view local times or setup timezone preferences in your user account.

Time Position Orientation Groundspeed Altitude Reporting Facility
EDT Latitude Longitude Course Direction KTS MPH feet Rate Location/Type
Fri 20:22:44 35.8431 -78.8283 227° Southwest 151 174 2,800  Level Washington Center
Fri 20:23:01 35.8531 -78.8492 301° West 212 244 3,400 3,818 Climbing Washington Center
Fri 20:24:01 35.9022 -78.8794 333° Northwest 212 244 7,700 3,450 Climbing Washington Center
Fri 20:25:01 35.9664 -78.8206 37° Northeast 215 247 10,300 2,950 Climbing Washington Center
Fri 20:26:01 36.0358 -78.7283 47° Northeast 299 344 13,600 3,450 Climbing Washington Center
Fri 20:27:01 36.1114 -78.6311 46° Northeast 332 382 17,200 3,750 Climbing Washington Center
Fri 20:28:01 36.1889 -78.5286 47° Northeast 376 433 21,100 2,900 Climbing Washington Center
Fri 20:29:01 36.2686 -78.4258 46° Northeast 402 463 23,000 950 Climbing Washington Center
Fri 20:30:01 36.3725 -78.3497 31° Northeast 426 490 23,000  Level Washington Center
Fri 20:31:01 36.4889 -78.2814 25° Northeast 432 497 23,000  Level Washington Center
Fri 20:32:01 36.6031 -78.2128 26° Northeast 442 509 23,000  Level Washington Center
Fri 20:33:01 36.7003 -78.1539 26° Northeast 442 509 23,000  Level Washington Center
Fri 20:34:01 36.8186 -78.0853 25° Northeast 447 514 23,000  Level Washington Center
Fri 20:35:01 36.9431 -78.0192 23° Northeast 458 527 23,000  Level Washington Center
Fri 20:36:01 37.0842 -77.9583 19° North 476 548 23,000  Level Washington Center
Fri 20:37:01 37.2064 -77.8919 23° Northeast 476 548 23,000  Level Washington Center
Fri 20:38:01 37.3247 -77.8144 28° Northeast 476 548 23,000  Level Washington Center
Fri 20:39:01 37.4469 -77.7369 27° Northeast 476 548 23,000  Level Washington Center
Fri 20:40:01 37.5694 -77.6617 26° Northeast 476 548 23,000  Level Washington Center
Fri 20:41:01 37.6894 -77.5836 27° Northeast 476 548 23,000  Level Washington Center
Fri 20:42:01 37.7992 -77.5156 26° Northeast 476 548 23,000  Level Washington Center
Fri 20:43:01 37.9214 -77.4344 28° Northeast 481 554 23,000  Level Washington Center
Fri 20:44:01 38.0456 -77.3558 26° Northeast 481 554 23,000 -1,250 Level Washington Center
Fri 20:45:01 38.1656 -77.2794 27° Northeast 481 554 20,500 -2,850 Descending Washington Center
Fri 20:46:01 38.2833 -77.2025 27° Northeast 476 548 17,300 -2,650 Descending Washington Center
Fri 20:47:01 38.4075 -77.1178 28° Northeast 464 534 15,200 -1,200 Descending Washington Center
Fri 20:48:01 38.4731 -77.0344 45° Northeast 418 481 14,900 -250 Descending Washington Center
Fri 20:49:01 38.5567 -77.0147 10° North 350 403 14,700 -700 Descending Washington Center
Fri 20:50:01 38.6119 -76.9256 52° Northeast 313 360 13,500 -1,227 Descending Washington Center
Fri 20:50:29 38.6333 -76.8833 57° Northeast 314 361 12,900 -1,200 Descending Potomac TRACON
Fri 20:51:01 38.6589 -76.8358 55° Northeast 306 352 12,300 -1,109 Descending Washington Center
Fri 20:52:01 38.7242 -76.7783 34° Northeast 292 336 11,200 -1,400 Descending Washington Center
Fri 20:53:01 38.7789 -76.7153 42° Northeast 275 316 9,500 -1,600 Descending Washington Center
Fri 20:54:01 38.7922 -76.6197 80° East 255 293 8,000 -1,500 Descending Washington Center
Fri 20:54:29 38.8000 -76.5667 79° East 271 312 7,300 -1,500 Descending Potomac TRACON
Fri 20:55:29 38.8667 -76.5500 11° North 241 277 5,800 -1,500 Descending Potomac TRACON
Fri 20:56:29 38.9333 -76.5667 349° North 229 264 4,300 -900 Descending Potomac TRACON
Fri 20:57:29 38.9833 -76.6167 322° Northwest 219 252 4,000 -150 Descending Potomac TRACON
Fri 20:58:29 39.0167 -76.6833 303° West 216 249 4,000 -100 Level Potomac TRACON
Fri 20:59:29 39.0333 -76.7500 288° West 231 266 3,800 -300 Descending Potomac TRACON
Fri 21:00:29 39.0667 -76.8167 303° West 189 217 3,400 -397 Descending Potomac TRACON
Fri 21:01:30 39.0833 -76.8667 293° West 167 192 3,000 -397 Descending Potomac TRACON
Fri 21:02:30 39.1167 -76.9167 311° West 177 204 2,600 -526 Descending Potomac TRACON
Fri 21:03:24 39.1500 -76.9167 360° North 171 197 2,000 -316 Descending Potomac TRACON
Fri 21:04:24 39.1833 -76.8500 57° Northeast 185 213 2,000  Level Potomac TRACON
Fri 21:05:24 39.1833 -76.8000 90° East 165 190 2,000 -500 Level Potomac TRACON
Fri 21:06:24 39.1833 -76.7500 90° East 142 163 1,000 -750 Descending Potomac TRACON
Fri 21:07:24 39.1833 -76.7000 90° East 127 146 500 -500 Descending Potomac TRACON

Login

Don't have an account? Register now (free) for customized features, flight alerts, and more!